sensor_id;sensor_type;location;lat;lon;timestamp;P1;durP1;ratioP1;P2;durP2;ratioP2
795;SDS011;381;48.770;9.188;2023-07-31T00:36:24;6.37;;;3.10;;
795;SDS011;381;48.770;9.188;2023-07-31T04:17:32;3.40;;;3.10;;
795;SDS011;381;48.770;9.188;2023-07-31T04:22:34;2.53;;;2.33;;
795;SDS011;381;48.770;9.188;2023-07-31T04:27:36;2.90;;;2.70;;
795;SDS011;381;48.770;9.188;2023-07-31T04:32:40;2.90;;;2.70;;
795;SDS011;381;48.770;9.188;2023-07-31T04:37:42;4.20;;;2.90;;
795;SDS011;381;48.770;9.188;2023-07-31T04:42:44;2.80;;;2.70;;
795;SDS011;381;48.770;9.188;2023-07-31T04:47:48;3.10;;;2.87;;
795;SDS011;381;48.770;9.188;2023-07-31T04:52:50;3.57;;;2.80;;
795;SDS011;381;48.770;9.188;2023-07-31T04:57:52;3.10;;;2.80;;
795;SDS011;381;48.770;9.188;2023-07-31T05:03:02;2.97;;;2.77;;
795;SDS011;381;48.770;9.188;2023-07-31T05:08:09;4.80;;;3.17;;
795;SDS011;381;48.770;9.188;2023-07-31T05:13:18;3.50;;;3.17;;
795;SDS011;381;48.770;9.188;2023-07-31T05:18:23;6.90;;;3.33;;
795;SDS011;381;48.770;9.188;2023-07-31T05:23:26;4.40;;;2.73;;
795;SDS011;381;48.770;9.188;2023-07-31T05:28:29;3.60;;;2.93;;
795;SDS011;381;48.770;9.188;2023-07-31T05:33:38;2.97;;;2.73;;
795;SDS011;381;48.770;9.188;2023-07-31T05:38:48;2.60;;;2.40;;
795;SDS011;381;48.770;9.188;2023-07-31T05:44:08;3.50;;;3.13;;
795;SDS011;381;48.770;9.188;2023-07-31T05:49:13;2.90;;;2.70;;
795;SDS011;381;48.770;9.188;2023-07-31T05:54:15;3.47;;;2.60;;
795;SDS011;381;48.770;9.188;2023-07-31T05:59:17;8.43;;;2.77;;
795;SDS011;381;48.770;9.188;2023-07-31T06:04:21;2.50;;;2.30;;
795;SDS011;381;48.770;9.188;2023-07-31T06:09:25;4.33;;;3.00;;
795;SDS011;381;48.770;9.188;2023-07-31T06:14:27;3.00;;;2.77;;
795;SDS011;381;48.770;9.188;2023-07-31T06:19:31;2.90;;;2.50;;
795;SDS011;381;48.770;9.188;2023-07-31T06:24:33;2.80;;;2.60;;
795;SDS011;381;48.770;9.188;2023-07-31T06:29:35;3.20;;;2.90;;
795;SDS011;381;48.770;9.188;2023-07-31T06:34:38;2.70;;;2.50;;
795;SDS011;381;48.770;9.188;2023-07-31T06:39:41;3.27;;;2.03;;
795;SDS011;381;48.770;9.188;2023-07-31T06:44:43;2.53;;;2.33;;
795;SDS011;381;48.770;9.188;2023-07-31T06:49:46;4.63;;;2.50;;
795;SDS011;381;48.770;9.188;2023-07-31T06:54:59;2.33;;;2.13;;
795;SDS011;381;48.770;9.188;2023-07-31T07:00:04;2.70;;;2.37;;
795;SDS011;381;48.770;9.188;2023-07-31T07:05:08;3.20;;;2.57;;
795;SDS011;381;48.770;9.188;2023-07-31T07:10:11;4.97;;;2.90;;
795;SDS011;381;48.770;9.188;2023-07-31T07:15:13;3.80;;;2.27;;
795;SDS011;381;48.770;9.188;2023-07-31T07:20:17;2.70;;;2.50;;
795;SDS011;381;48.770;9.188;2023-07-31T07:25:20;4.00;;;2.60;;
795;SDS011;381;48.770;9.188;2023-07-31T07:30:22;7.33;;;3.67;;
795;SDS011;381;48.770;9.188;2023-07-31T07:35:26;3.27;;;2.97;;
795;SDS011;381;48.770;9.188;2023-07-31T07:40:29;3.60;;;2.47;;
795;SDS011;381;48.770;9.188;2023-07-31T07:45:31;2.93;;;2.50;;
795;SDS011;381;48.770;9.188;2023-07-31T07:50:34;4.00;;;3.10;;
795;SDS011;381;48.770;9.188;2023-07-31T07:55:37;2.50;;;2.37;;
795;SDS011;381;48.770;9.188;2023-07-31T08:00:39;3.27;;;2.80;;
795;SDS011;381;48.770;9.188;2023-07-31T08:05:43;3.90;;;2.60;;
795;SDS011;381;48.770;9.188;2023-07-31T08:10:45;3.93;;;3.40;;
795;SDS011;381;48.770;9.188;2023-07-31T08:15:47;2.53;;;2.33;;
795;SDS011;381;48.770;9.188;2023-07-31T08:20:50;3.17;;;2.87;;
795;SDS011;381;48.770;9.188;2023-07-31T08:25:53;3.43;;;2.83;;
795;SDS011;381;48.770;9.188;2023-07-31T08:30:55;4.03;;;2.70;;
795;SDS011;381;48.770;9.188;2023-07-31T08:35:58;3.07;;;2.70;;
795;SDS011;381;48.770;9.188;2023-07-31T08:41:02;4.40;;;2.93;;
795;SDS011;381;48.770;9.188;2023-07-31T08:46:05;3.33;;;3.00;;
795;SDS011;381;48.770;9.188;2023-07-31T08:51:08;4.27;;;2.70;;
795;SDS011;381;48.770;9.188;2023-07-31T08:56:11;2.90;;;2.70;;
795;SDS011;381;48.770;9.188;2023-07-31T09:01:15;3.30;;;2.60;;
795;SDS011;381;48.770;9.188;2023-07-31T09:06:19;3.37;;;2.60;;
795;SDS011;381;48.770;9.188;2023-07-31T09:11:25;2.73;;;2.53;;
795;SDS011;381;48.770;9.188;2023-07-31T09:16:28;3.27;;;2.97;;
795;SDS011;381;48.770;9.188;2023-07-31T09:21:33;2.80;;;2.50;;
795;SDS011;381;48.770;9.188;2023-07-31T09:26:48;4.00;;;2.70;;
795;SDS011;381;48.770;9.188;2023-07-31T09:31:55;3.93;;;2.80;;
795;SDS011;381;48.770;9.188;2023-07-31T09:37:01;3.43;;;2.60;;
795;SDS011;381;48.770;9.188;2023-07-31T09:42:04;3.63;;;2.90;;
795;SDS011;381;48.770;9.188;2023-07-31T09:47:06;7.37;;;3.47;;
795;SDS011;381;48.770;9.188;2023-07-31T09:52:23;3.33;;;2.93;;
795;SDS011;381;48.770;9.188;2023-07-31T09:57:27;3.73;;;3.20;;
795;SDS011;381;48.770;9.188;2023-07-31T10:02:29;3.50;;;3.20;;
795;SDS011;381;48.770;9.188;2023-07-31T10:07:36;3.80;;;2.90;;
795;SDS011;381;48.770;9.188;2023-07-31T10:12:39;5.30;;;3.70;;
795;SDS011;381;48.770;9.188;2023-07-31T10:17:42;3.90;;;2.93;;
795;SDS011;381;48.770;9.188;2023-07-31T10:22:46;4.50;;;3.20;;
795;SDS011;381;48.770;9.188;2023-07-31T10:27:50;3.93;;;2.83;;
795;SDS011;381;48.770;9.188;2023-07-31T10:32:53;4.90;;;2.77;;
795;SDS011;381;48.770;9.188;2023-07-31T10:37:59;4.00;;;3.60;;
795;SDS011;381;48.770;9.188;2023-07-31T10:43:23;3.53;;;3.17;;
795;SDS011;381;48.770;9.188;2023-07-31T10:48:27;4.70;;;2.53;;
795;SDS011;381;48.770;9.188;2023-07-31T10:53:36;3.60;;;3.00;;
795;SDS011;381;48.770;9.188;2023-07-31T10:58:38;5.10;;;3.70;;
795;SDS011;381;48.770;9.188;2023-07-31T11:03:41;6.03;;;2.80;;
795;SDS011;381;48.770;9.188;2023-07-31T11:08:45;3.10;;;2.80;;
795;SDS011;381;48.770;9.188;2023-07-31T11:13:49;3.23;;;2.90;;
795;SDS011;381;48.770;9.188;2023-07-31T11:18:53;6.10;;;3.40;;
795;SDS011;381;48.770;9.188;2023-07-31T11:23:57;6.00;;;3.63;;
795;SDS011;381;48.770;9.188;2023-07-31T11:29:00;4.87;;;3.77;;
795;SDS011;381;48.770;9.188;2023-07-31T11:34:06;3.57;;;3.20;;
795;SDS011;381;48.770;9.188;2023-07-31T11:39:09;4.27;;;3.20;;
795;SDS011;381;48.770;9.188;2023-07-31T11:44:12;4.53;;;3.40;;
795;SDS011;381;48.770;9.188;2023-07-31T11:49:14;5.83;;;3.43;;
795;SDS011;381;48.770;9.188;2023-07-31T11:54:18;4.60;;;3.87;;
795;SDS011;381;48.770;9.188;2023-07-31T11:59:20;3.80;;;3.30;;
795;SDS011;381;48.770;9.188;2023-07-31T12:04:23;3.93;;;3.57;;
795;SDS011;381;48.770;9.188;2023-07-31T12:09:27;6.40;;;3.60;;
795;SDS011;381;48.770;9.188;2023-07-31T12:14:29;3.73;;;3.43;;
795;SDS011;381;48.770;9.188;2023-07-31T12:19:31;5.90;;;2.83;;
795;SDS011;381;48.770;9.188;2023-07-31T12:24:35;3.30;;;3.00;;
795;SDS011;381;48.770;9.188;2023-07-31T12:29:38;3.80;;;3.10;;
795;SDS011;381;48.770;9.188;2023-07-31T12:34:42;4.20;;;3.00;;
795;SDS011;381;48.770;9.188;2023-07-31T12:39:45;4.77;;;2.63;;
795;SDS011;381;48.770;9.188;2023-07-31T12:44:47;3.70;;;3.40;;
795;SDS011;381;48.770;9.188;2023-07-31T12:49:50;3.83;;;3.50;;
795;SDS011;381;48.770;9.188;2023-07-31T12:54:53;6.50;;;3.03;;
795;SDS011;381;48.770;9.188;2023-07-31T12:59:55;4.20;;;3.40;;
795;SDS011;381;48.770;9.188;2023-07-31T13:04:57;4.17;;;3.13;;
795;SDS011;381;48.770;9.188;2023-07-31T13:10:01;5.27;;;3.30;;
795;SDS011;381;48.770;9.188;2023-07-31T13:15:03;3.47;;;3.17;;
795;SDS011;381;48.770;9.188;2023-07-31T13:20:07;3.33;;;3.13;;
795;SDS011;381;48.770;9.188;2023-07-31T13:25:11;4.47;;;3.70;;
795;SDS011;381;48.770;9.188;2023-07-31T13:30:13;4.17;;;3.77;;
795;SDS011;381;48.770;9.188;2023-07-31T13:35:15;4.20;;;3.27;;
795;SDS011;381;48.770;9.188;2023-07-31T13:40:19;6.27;;;3.37;;
795;SDS011;381;48.770;9.188;2023-07-31T13:45:21;3.93;;;3.63;;
795;SDS011;381;48.770;9.188;2023-07-31T13:50:23;3.53;;;3.23;;
795;SDS011;381;48.770;9.188;2023-07-31T13:55:27;3.80;;;3.50;;
795;SDS011;381;48.770;9.188;2023-07-31T14:00:29;3.03;;;2.83;;
795;SDS011;381;48.770;9.188;2023-07-31T14:05:32;3.70;;;3.27;;
795;SDS011;381;48.770;9.188;2023-07-31T14:10:35;4.20;;;3.37;;
795;SDS011;381;48.770;9.188;2023-07-31T14:15:37;3.47;;;3.17;;
795;SDS011;381;48.770;9.188;2023-07-31T14:20:41;4.87;;;3.47;;
795;SDS011;381;48.770;9.188;2023-07-31T14:25:44;6.50;;;3.40;;
795;SDS011;381;48.770;9.188;2023-07-31T14:30:46;3.40;;;3.10;;
795;SDS011;381;48.770;9.188;2023-07-31T14:35:48;3.10;;;2.83;;
795;SDS011;381;48.770;9.188;2023-07-31T14:40:52;5.37;;;4.73;;
795;SDS011;381;48.770;9.188;2023-07-31T14:45:54;3.93;;;3.50;;
795;SDS011;381;48.770;9.188;2023-07-31T14:50:59;4.17;;;3.47;;
795;SDS011;381;48.770;9.188;2023-07-31T14:56:03;2.97;;;2.77;;
795;SDS011;381;48.770;9.188;2023-07-31T15:01:06;4.80;;;3.87;;
795;SDS011;381;48.770;9.188;2023-07-31T15:06:08;3.37;;;3.10;;
795;SDS011;381;48.770;9.188;2023-07-31T15:11:11;4.70;;;3.50;;
795;SDS011;381;48.770;9.188;2023-07-31T15:16:15;3.00;;;2.70;;
795;SDS011;381;48.770;9.188;2023-07-31T15:21:18;3.03;;;2.80;;
795;SDS011;381;48.770;9.188;2023-07-31T15:26:21;4.20;;;3.30;;
795;SDS011;381;48.770;9.188;2023-07-31T15:31:23;4.20;;;2.80;;
795;SDS011;381;48.770;9.188;2023-07-31T15:36:25;3.80;;;3.50;;
795;SDS011;381;48.770;9.188;2023-07-31T15:41:29;4.10;;;3.80;;
795;SDS011;381;48.770;9.188;2023-07-31T15:46:31;3.70;;;3.10;;
795;SDS011;381;48.770;9.188;2023-07-31T15:51:34;3.47;;;3.17;;
795;SDS011;381;48.770;9.188;2023-07-31T15:56:37;6.43;;;3.27;;
795;SDS011;381;48.770;9.188;2023-07-31T16:01:39;5.20;;;3.63;;
795;SDS011;381;48.770;9.188;2023-07-31T16:06:41;3.23;;;2.93;;
795;SDS011;381;48.770;9.188;2023-07-31T16:11:45;3.43;;;3.13;;
795;SDS011;381;48.770;9.188;2023-07-31T16:16:47;3.90;;;3.07;;
795;SDS011;381;48.770;9.188;2023-07-31T16:21:50;3.53;;;3.23;;
795;SDS011;381;48.770;9.188;2023-07-31T16:26:54;6.23;;;3.30;;
795;SDS011;381;48.770;9.188;2023-07-31T16:31:56;2.27;;;2.17;;
795;SDS011;381;48.770;9.188;2023-07-31T16:36:58;4.17;;;3.23;;
795;SDS011;381;48.770;9.188;2023-07-31T16:42:02;5.40;;;3.47;;
795;SDS011;381;48.770;9.188;2023-07-31T16:47:05;3.80;;;3.30;;
795;SDS011;381;48.770;9.188;2023-07-31T16:52:07;7.43;;;3.20;;
795;SDS011;381;48.770;9.188;2023-07-31T16:57:11;3.20;;;2.90;;
795;SDS011;381;48.770;9.188;2023-07-31T17:02:13;3.80;;;3.27;;
795;SDS011;381;48.770;9.188;2023-07-31T17:07:15;4.40;;;4.07;;
795;SDS011;381;48.770;9.188;2023-07-31T17:12:19;5.17;;;3.53;;
795;SDS011;381;48.770;9.188;2023-07-31T17:17:22;3.90;;;3.60;;
795;SDS011;381;48.770;9.188;2023-07-31T17:22:25;3.20;;;2.90;;
795;SDS011;381;48.770;9.188;2023-07-31T17:27:28;4.70;;;3.37;;
795;SDS011;381;48.770;9.188;2023-07-31T17:32:30;5.70;;;3.37;;
795;SDS011;381;48.770;9.188;2023-07-31T17:37:32;4.37;;;4.07;;
795;SDS011;381;48.770;9.188;2023-07-31T17:42:36;4.50;;;3.80;;
795;SDS011;381;48.770;9.188;2023-07-31T17:47:38;4.00;;;3.40;;
795;SDS011;381;48.770;9.188;2023-07-31T17:52:40;3.83;;;3.43;;
795;SDS011;381;48.770;9.188;2023-07-31T17:57:44;3.80;;;3.27;;
795;SDS011;381;48.770;9.188;2023-07-31T18:02:46;3.50;;;3.20;;
795;SDS011;381;48.770;9.188;2023-07-31T18:07:48;2.87;;;2.67;;
795;SDS011;381;48.770;9.188;2023-07-31T18:12:52;4.03;;;2.80;;
795;SDS011;381;48.770;9.188;2023-07-31T18:17:57;3.67;;;3.37;;
795;SDS011;381;48.770;9.188;2023-07-31T18:22:59;4.37;;;3.10;;
795;SDS011;381;48.770;9.188;2023-07-31T18:28:03;4.00;;;3.37;;
795;SDS011;381;48.770;9.188;2023-07-31T18:33:05;3.50;;;3.20;;
795;SDS011;381;48.770;9.188;2023-07-31T18:38:07;4.27;;;3.60;;
795;SDS011;381;48.770;9.188;2023-07-31T18:43:11;5.60;;;3.47;;
795;SDS011;381;48.770;9.188;2023-07-31T18:48:14;5.10;;;3.87;;
795;SDS011;381;48.770;9.188;2023-07-31T18:53:17;4.93;;;4.27;;
795;SDS011;381;48.770;9.188;2023-07-31T18:58:20;5.10;;;4.50;;
795;SDS011;381;48.770;9.188;2023-07-31T19:03:22;5.43;;;4.93;;
795;SDS011;381;48.770;9.188;2023-07-31T19:08:25;7.40;;;6.80;;
795;SDS011;381;48.770;9.188;2023-07-31T19:13:28;9.30;;;8.33;;
795;SDS011;381;48.770;9.188;2023-07-31T19:18:30;10.07;;;9.27;;
795;SDS011;381;48.770;9.188;2023-07-31T19:23:33;10.70;;;9.70;;
795;SDS011;381;48.770;9.188;2023-07-31T19:28:36;11.10;;;10.10;;
795;SDS011;381;48.770;9.188;2023-07-31T19:33:38;11.20;;;10.20;;
795;SDS011;381;48.770;9.188;2023-07-31T19:38:41;12.40;;;11.10;;
795;SDS011;381;48.770;9.188;2023-07-31T19:43:44;11.40;;;10.30;;
795;SDS011;381;48.770;9.188;2023-07-31T19:48:46;11.50;;;10.70;;
795;SDS011;381;48.770;9.188;2023-07-31T19:53:48;10.77;;;9.90;;
795;SDS011;381;48.770;9.188;2023-07-31T19:58:52;12.10;;;10.97;;
795;SDS011;381;48.770;9.188;2023-07-31T20:03:54;12.07;;;10.53;;
795;SDS011;381;48.770;9.188;2023-07-31T20:08:56;11.43;;;10.50;;
795;SDS011;381;48.770;9.188;2023-07-31T20:14:00;12.80;;;11.07;;
795;SDS011;381;48.770;9.188;2023-07-31T20:19:06;12.63;;;11.63;;
795;SDS011;381;48.770;9.188;2023-07-31T20:24:08;12.50;;;11.67;;
795;SDS011;381;48.770;9.188;2023-07-31T20:29:13;12.00;;;11.30;;
795;SDS011;381;48.770;9.188;2023-07-31T20:34:15;10.67;;;9.87;;
795;SDS011;381;48.770;9.188;2023-07-31T20:39:17;12.63;;;11.63;;
795;SDS011;381;48.770;9.188;2023-07-31T20:44:20;11.33;;;10.43;;
795;SDS011;381;48.770;9.188;2023-07-31T20:49:22;11.53;;;10.73;;
795;SDS011;381;48.770;9.188;2023-07-31T20:54:24;11.47;;;10.47;;
795;SDS011;381;48.770;9.188;2023-07-31T20:59:28;10.60;;;9.60;;
795;SDS011;381;48.770;9.188;2023-07-31T21:04:30;11.47;;;10.47;;
795;SDS011;381;48.770;9.188;2023-07-31T21:09:33;10.90;;;10.10;;
795;SDS011;381;48.770;9.188;2023-07-31T21:14:36;10.20;;;9.50;;
795;SDS011;381;48.770;9.188;2023-07-31T21:19:41;8.93;;;8.23;;
795;SDS011;381;48.770;9.188;2023-07-31T21:24:44;11.00;;;9.90;;
795;SDS011;381;48.770;9.188;2023-07-31T21:29:47;9.60;;;8.90;;
795;SDS011;381;48.770;9.188;2023-07-31T21:34:49;8.20;;;7.70;;
795;SDS011;381;48.770;9.188;2023-07-31T21:39:52;9.53;;;8.80;;
795;SDS011;381;48.770;9.188;2023-07-31T21:44:55;8.10;;;7.50;;
795;SDS011;381;48.770;9.188;2023-07-31T21:49:57;8.90;;;7.60;;
795;SDS011;381;48.770;9.188;2023-07-31T21:54:59;8.43;;;7.70;;
795;SDS011;381;48.770;9.188;2023-07-31T22:00:03;9.43;;;7.97;;
795;SDS011;381;48.770;9.188;2023-07-31T22:05:07;8.17;;;7.10;;
795;SDS011;381;48.770;9.188;2023-07-31T22:10:09;8.03;;;7.43;;
795;SDS011;381;48.770;9.188;2023-07-31T22:15:13;7.23;;;6.73;;
795;SDS011;381;48.770;9.188;2023-07-31T22:20:15;8.27;;;7.47;;
795;SDS011;381;48.770;9.188;2023-07-31T22:25:17;7.90;;;7.40;;
795;SDS011;381;48.770;9.188;2023-07-31T22:30:21;8.17;;;7.57;;
795;SDS011;381;48.770;9.188;2023-07-31T22:35:23;7.60;;;6.83;;
795;SDS011;381;48.770;9.188;2023-07-31T22:40:25;8.50;;;7.70;;
795;SDS011;381;48.770;9.188;2023-07-31T22:45:28;7.27;;;6.60;;
795;SDS011;381;48.770;9.188;2023-07-31T22:50:30;6.13;;;5.63;;
795;SDS011;381;48.770;9.188;2023-07-31T22:55:33;6.90;;;6.40;;
795;SDS011;381;48.770;9.188;2023-07-31T23:00:36;7.30;;;6.70;;
795;SDS011;381;48.770;9.188;2023-07-31T23:05:38;5.40;;;4.90;;
795;SDS011;381;48.770;9.188;2023-07-31T23:10:40;6.47;;;5.97;;
795;SDS011;381;48.770;9.188;2023-07-31T23:15:44;5.37;;;4.90;;
795;SDS011;381;48.770;9.188;2023-07-31T23:20:48;6.50;;;5.50;;
795;SDS011;381;48.770;9.188;2023-07-31T23:25:51;5.87;;;5.40;;
795;SDS011;381;48.770;9.188;2023-07-31T23:31:00;6.90;;;5.03;;
795;SDS011;381;48.770;9.188;2023-07-31T23:36:06;5.20;;;4.70;;
795;SDS011;381;48.770;9.188;2023-07-31T23:41:10;4.57;;;4.27;;
795;SDS011;381;48.770;9.188;2023-07-31T23:46:13;5.10;;;4.70;;
795;SDS011;381;48.770;9.188;2023-07-31T23:51:15;4.73;;;4.33;;
795;SDS011;381;48.770;9.188;2023-07-31T23:56:18;5.20;;;4.70;;
